createdAt,value
2022-12-13T01:07:45.648Z,14.43
2022-12-13T01:12:49.298Z,14.73
2022-12-13T01:17:53.249Z,14.73
2022-12-13T01:22:57.999Z,14.47
2022-12-13T01:28:01.408Z,14.43
2022-12-13T01:33:14.244Z,14.88
2022-12-13T01:38:19.897Z,15.20
2022-12-13T01:43:50.953Z,15.10
2022-12-13T01:49:02.221Z,14.70
2022-12-13T01:54:09.333Z,16.42
2022-12-13T01:59:14.528Z,17.65
2022-12-13T02:04:22.117Z,18.33
2022-12-13T02:09:27.593Z,18.27
2022-12-13T02:14:30.970Z,18.92
2022-12-13T02:20:07.072Z,20.88
2022-12-13T02:25:33.607Z,21.83
2022-12-13T02:30:42.851Z,23.83
2022-12-13T02:35:55.515Z,23.87
2022-12-13T02:41:06.245Z,21.40
2022-12-13T02:46:12.950Z,21.23
2022-12-13T02:51:18.550Z,19.58
2022-12-13T02:56:21.924Z,19.37
2022-12-13T03:01:49.828Z,20.27
2022-12-13T03:07:02.099Z,20.27
2022-12-13T03:12:38.794Z,20.87
2022-12-13T03:17:50.673Z,19.33
2022-12-13T03:22:54.305Z,17.20
2022-12-13T03:27:57.665Z,17.45
2022-12-13T03:33:06.348Z,16.50
2022-12-13T03:38:10.559Z,17.30
2022-12-13T03:43:13.968Z,17.33
2022-12-13T03:48:27.339Z,18.33
2022-12-13T03:53:33.187Z,20.75
2022-12-13T03:58:38.593Z,20.05
2022-12-13T04:03:45.637Z,18.60
2022-12-13T04:08:51.237Z,18.13
2022-12-13T04:13:55.327Z,17.23
2022-12-13T04:19:00.328Z,18.45
2022-12-13T04:24:04.886Z,20.37
2022-12-13T04:29:08.272Z,19.43
2022-12-13T04:34:13.009Z,17.38
2022-12-13T04:39:21.976Z,17.27
2022-12-13T04:44:27.316Z,17.37
2022-12-13T04:49:34.663Z,17.47
2022-12-13T04:54:38.146Z,17.27
2022-12-13T04:59:41.952Z,16.08
2022-12-13T05:04:48.239Z,15.80
2022-12-13T05:09:58.412Z,16.60
2022-12-13T05:15:01.714Z,18.05
2022-12-13T05:20:07.605Z,15.07
2022-12-13T05:25:12.986Z,16.33
2022-12-13T05:30:17.161Z,14.38
2022-12-13T05:35:22.948Z,13.77
2022-12-13T05:40:28.795Z,13.30
2022-12-13T05:45:32.797Z,13.82
2022-12-13T05:50:38.265Z,14.50
2022-12-13T05:55:42.141Z,13.27
2022-12-13T06:00:45.487Z,13.63
2022-12-13T06:05:50.136Z,13.20
2022-12-13T06:11:11.304Z,13.60
2022-12-13T06:16:22.856Z,14.35
2022-12-13T06:21:40.683Z,14.23
2022-12-13T06:26:49.602Z,14.77
2022-12-13T06:32:01.098Z,13.73
2022-12-13T06:37:09.110Z,15.95
2022-12-13T06:42:21.647Z,14.13
2022-12-13T06:47:31.995Z,13.77
2022-12-13T06:52:37.442Z,14.93
2022-12-13T06:57:41.244Z,15.18
2022-12-13T07:02:44.918Z,13.52
2022-12-13T07:07:49.920Z,13.10
2022-12-13T07:12:53.255Z,13.17
2022-12-13T07:17:56.614Z,13.45
2022-12-13T07:23:01.513Z,12.48
2022-12-13T07:28:07.579Z,12.25
2022-12-13T07:33:11.618Z,11.32
2022-12-13T07:38:16.265Z,13.02
2022-12-13T07:43:20.054Z,13.35
2022-12-13T07:48:23.525Z,13.43
2022-12-13T07:53:28.649Z,12.80
2022-12-13T07:58:36.894Z,13.63
2022-12-13T08:03:40.428Z,13.68
2022-12-13T08:08:45.090Z,13.50
2022-12-13T08:13:48.377Z,13.35
2022-12-13T08:18:51.685Z,13.67
2022-12-13T08:23:56.562Z,12.85
2022-12-13T08:28:59.913Z,12.65
2022-12-13T08:34:03.232Z,12.40
2022-12-13T08:39:07.986Z,12.67
2022-12-13T08:44:11.397Z,14.50
2022-12-13T08:49:14.879Z,12.80
2022-12-13T08:54:31.140Z,12.77
2022-12-13T08:59:35.039Z,13.18
2022-12-13T09:04:39.030Z,12.93
2022-12-13T09:09:43.708Z,13.13
2022-12-13T09:14:47.432Z,13.20
2022-12-13T09:19:50.777Z,12.75
2022-12-13T09:25:03.322Z,12.82
2022-12-13T09:30:08.102Z,14.25
2022-12-13T09:35:11.446Z,13.10
2022-12-13T09:40:25.392Z,13.97
2022-12-13T09:45:31.736Z,16.63
2022-12-13T09:50:39.842Z,14.43
2022-12-13T09:55:51.510Z,14.45
2022-12-13T10:00:56.584Z,13.45
2022-12-13T10:06:01.689Z,13.80
2022-12-13T10:11:06.454Z,15.45
2022-12-13T10:16:15.319Z,14.57
2022-12-13T10:21:30.513Z,11.88
2022-12-13T10:31:44.861Z,12.53
2022-12-13T10:36:48.433Z,11.73
2022-12-13T10:42:04.763Z,12.17
2022-12-13T10:47:17.846Z,12.20
2022-12-13T10:52:31.579Z,12.80
2022-12-13T10:57:36.704Z,12.23
2022-12-13T11:02:41.725Z,11.93
2022-12-13T11:07:45.213Z,12.52
2022-12-13T11:12:52.188Z,12.55
2022-12-13T11:18:00.096Z,13.73
2022-12-13T11:23:06.759Z,16.63
2022-12-13T11:28:31.918Z,13.23
2022-12-13T11:33:48.396Z,11.30
2022-12-13T11:39:07.067Z,11.00
2022-12-13T11:44:17.983Z,12.23
2022-12-13T11:49:33.601Z,12.40
2022-12-13T11:54:53.392Z,11.32
2022-12-13T12:00:02.942Z,12.40
2022-12-13T12:05:16.745Z,10.60
2022-12-13T12:10:30.550Z,11.52
2022-12-13T12:15:42.504Z,11.97
2022-12-13T12:21:04.961Z,11.80
2022-12-13T12:26:12.717Z,11.13
2022-12-13T12:31:26.437Z,10.35
2022-12-13T12:36:39.277Z,10.00
2022-12-13T12:41:54.819Z,10.43
2022-12-13T12:47:38.171Z,9.55
2022-12-13T12:52:50.872Z,10.10
2022-12-13T12:58:02.520Z,9.05
2022-12-13T13:03:22.566Z,7.73
2022-12-13T13:08:32.802Z,9.43
2022-12-13T13:13:46.557Z,7.97
2022-12-13T13:18:52.594Z,9.23
2022-12-13T13:24:08.283Z,14.83
2022-12-13T13:29:31.884Z,7.60
2022-12-13T13:34:38.939Z,7.65
2022-12-13T13:40:00.990Z,7.28
2022-12-13T13:45:23.919Z,7.05
2022-12-13T13:50:52.133Z,6.60
2022-12-13T13:56:08.457Z,6.63
2022-12-13T14:02:01.170Z,7.65
2022-12-13T14:07:52.525Z,6.97
2022-12-13T14:13:40.016Z,7.38
2022-12-13T14:19:26.245Z,9.20
2022-12-13T14:24:39.784Z,12.68
2022-12-13T14:29:48.480Z,15.13
2022-12-13T14:35:25.838Z,11.30
2022-12-13T14:40:30.337Z,12.25
2022-12-13T14:45:36.744Z,14.27
2022-12-13T14:50:42.579Z,26.23
2022-12-13T14:56:04.898Z,18.33
2022-12-13T15:01:23.916Z,15.98
2022-12-13T15:06:33.389Z,17.55
2022-12-13T15:11:38.616Z,17.83
2022-12-13T15:16:47.964Z,17.13
2022-12-13T15:22:01.840Z,20.08
2022-12-13T15:27:09.858Z,16.47
2022-12-13T15:32:16.362Z,16.52
2022-12-13T15:37:29.317Z,16.38
2022-12-13T15:42:38.062Z,16.70
2022-12-13T15:47:46.738Z,19.57
2022-12-13T15:53:01.484Z,17.98
2022-12-13T15:58:26.793Z,22.60
2022-12-13T16:03:33.492Z,20.77
2022-12-13T16:08:39.741Z,33.40
2022-12-13T16:13:47.352Z,33.87
2022-12-13T16:18:54.250Z,34.43
2022-12-13T16:23:57.678Z,32.60
2022-12-13T16:29:02.404Z,26.53
2022-12-13T16:34:06.933Z,21.42
2022-12-13T16:39:12.615Z,20.05
2022-12-13T16:44:23.941Z,19.87
2022-12-13T16:49:29.201Z,19.23
2022-12-13T16:54:32.627Z,15.67
2022-12-13T16:59:37.455Z,14.95
2022-12-13T17:04:41.698Z,14.65
2022-12-13T17:09:45.225Z,17.83
2022-12-13T17:14:53.190Z,20.37
2022-12-13T17:19:56.575Z,19.67
2022-12-13T17:25:00.033Z,18.95
2022-12-13T17:30:05.312Z,22.03
2022-12-13T17:35:13.359Z,19.25
2022-12-13T17:40:21.438Z,16.93
2022-12-13T17:45:26.174Z,15.55
2022-12-13T17:50:30.727Z,22.95
2022-12-13T17:55:34.252Z,17.47
2022-12-13T18:00:39.925Z,15.13
2022-12-13T18:05:43.275Z,13.80
2022-12-13T18:11:23.540Z,14.90
2022-12-13T18:16:20.654Z,14.15
2022-12-13T18:21:25.648Z,14.40
2022-12-13T18:26:28.939Z,17.92
2022-12-13T18:31:34.534Z,15.63
2022-12-13T18:36:39.568Z,18.35
2022-12-13T18:41:42.911Z,16.20
2022-12-13T18:46:49.044Z,14.77
2022-12-13T18:51:52.387Z,17.57
2022-12-13T18:56:55.774Z,20.33
2022-12-13T19:02:01.083Z,20.13
2022-12-13T19:07:04.839Z,19.35
2022-12-13T19:12:08.318Z,22.10
2022-12-13T19:17:13.049Z,22.20
2022-12-13T19:22:16.634Z,24.05
2022-12-13T19:27:19.966Z,26.60
2022-12-13T19:32:25.111Z,24.15
2022-12-13T19:37:28.463Z,22.20
2022-12-13T19:42:32.261Z,19.60
2022-12-13T19:47:37.043Z,19.00
2022-12-13T19:52:40.514Z,16.80
2022-12-13T19:57:43.874Z,16.93
2022-12-13T20:02:48.683Z,17.35
2022-12-13T20:07:53.967Z,18.45
2022-12-13T20:12:57.544Z,20.63
2022-12-13T20:18:02.683Z,16.85
2022-12-13T20:23:06.468Z,17.80
2022-12-13T20:28:15.901Z,17.05
2022-12-13T20:33:21.181Z,15.63
2022-12-13T20:38:24.531Z,15.77
2022-12-13T20:43:28.245Z,13.98
2022-12-13T20:48:36.763Z,14.55
2022-12-13T20:53:41.762Z,13.52
2022-12-13T20:58:45.735Z,13.40
2022-12-13T21:03:51.207Z,14.30
2022-12-13T21:08:56.835Z,14.55
2022-12-13T21:14:07.534Z,15.00
2022-12-13T21:19:19.457Z,14.70
2022-12-13T21:24:24.185Z,15.27
2022-12-13T21:29:27.745Z,14.33
2022-12-13T21:34:33.119Z,13.38
2022-12-13T21:39:36.586Z,13.77
2022-12-13T21:44:40.523Z,16.93
2022-12-13T21:49:48.720Z,16.60
2022-12-13T21:55:15.364Z,15.43
2022-12-13T22:00:17.537Z,13.82
2022-12-13T22:05:22.665Z,15.35
2022-12-13T22:10:25.972Z,14.50
2022-12-13T22:15:30.111Z,15.37
2022-12-13T22:20:34.904Z,14.75
2022-12-13T22:25:38.368Z,15.80
2022-12-13T22:30:41.737Z,15.30
2022-12-13T22:35:46.583Z,14.93
2022-12-13T22:40:50.037Z,14.07
2022-12-13T22:45:53.503Z,13.77
2022-12-13T22:51:03.184Z,14.37
2022-12-13T22:56:07.756Z,14.65
2022-12-13T23:01:12.989Z,14.27
2022-12-13T23:06:19.746Z,14.05
2022-12-13T23:11:53.202Z,14.18
2022-12-13T23:16:56.724Z,13.80
2022-12-13T23:22:01.492Z,14.20
2022-12-13T23:27:05.252Z,13.88
2022-12-13T23:32:08.749Z,13.63
2022-12-13T23:37:13.717Z,14.13
2022-12-13T23:42:17.094Z,14.20
2022-12-13T23:47:20.455Z,13.40
2022-12-13T23:52:25.216Z,12.77
2022-12-13T23:57:28.778Z,14.05
